createdAt,value
2024-03-11T00:04:57.974Z,13.39
2024-03-11T00:10:02.117Z,13.38
2024-03-11T00:15:08.666Z,13.38
2024-03-11T00:20:14.125Z,13.39
2024-03-11T00:25:17.804Z,13.38
2024-03-11T00:30:21.980Z,13.38
2024-03-11T00:35:27.153Z,13.38
2024-03-11T00:40:30.890Z,13.38
2024-03-11T00:45:34.591Z,13.37
2024-03-11T00:50:39.820Z,13.39
2024-03-11T00:55:43.575Z,13.38
2024-03-11T01:00:47.404Z,13.37
2024-03-11T01:05:52.846Z,13.37
2024-03-11T01:10:57.155Z,13.37
2024-03-11T01:16:01.265Z,13.36
2024-03-11T01:21:07.447Z,13.38
2024-03-11T01:26:11.471Z,13.37
2024-03-11T01:31:16.328Z,13.36
2024-03-11T01:36:21.389Z,13.37
2024-03-11T01:41:25.673Z,13.37
2024-03-11T01:46:30.181Z,13.38
2024-03-11T01:51:36.844Z,13.37
2024-03-11T01:56:40.793Z,13.34
2024-03-11T02:01:44.494Z,13.34
2024-03-11T02:06:50.016Z,13.36
2024-03-11T02:11:53.931Z,13.36
2024-03-11T02:17:00.039Z,13.36
2024-03-11T02:22:05.499Z,13.34
2024-03-11T02:27:10.595Z,13.37
2024-03-11T02:32:14.275Z,13.34
2024-03-11T02:37:17.957Z,13.33
2024-03-11T02:42:23.406Z,13.34
2024-03-11T02:47:27.469Z,13.33
2024-03-11T02:52:31.121Z,13.32
2024-03-11T02:57:36.291Z,13.32
2024-03-11T03:02:41.142Z,13.34
2024-03-11T03:07:44.962Z,13.33
2024-03-11T03:12:50.125Z,13.34
2024-03-11T03:17:54.020Z,13.33
2024-03-11T03:22:57.724Z,13.34
2024-03-11T03:28:04.092Z,13.34
2024-03-11T03:33:07.986Z,13.32
2024-03-11T03:38:11.722Z,13.31
2024-03-11T03:43:16.852Z,13.32
2024-03-11T03:48:20.629Z,13.31
2024-03-11T03:58:34.113Z,13.31
2024-03-11T04:03:39.421Z,13.32
2024-03-11T04:08:43.076Z,13.31
2024-03-11T04:13:50.412Z,13.32
2024-03-11T04:18:54.812Z,13.31
2024-03-11T04:24:00.595Z,13.32
2024-03-11T04:29:07.179Z,13.30
2024-03-11T04:34:11.885Z,13.31
2024-03-11T04:39:15.834Z,13.31
2024-03-11T04:44:20.970Z,13.29
2024-03-11T04:49:24.629Z,13.30
2024-03-11T04:54:29.091Z,13.29
2024-03-11T04:59:34.309Z,13.29
2024-03-11T05:04:38.172Z,13.29
2024-03-11T05:09:42.171Z,13.30
2024-03-11T05:14:47.311Z,13.30
2024-03-11T05:19:53.126Z,13.29
2024-03-11T05:24:56.886Z,13.30
2024-03-11T05:30:02.189Z,13.30
2024-03-11T05:35:06.523Z,13.29
2024-03-11T05:40:13.714Z,13.28
2024-03-11T05:45:19.636Z,13.29
2024-03-11T05:50:23.915Z,13.28
2024-03-11T05:55:34.343Z,13.29
2024-03-11T06:00:44.258Z,13.28
2024-03-11T06:05:50.281Z,13.28
2024-03-11T06:10:54.254Z,13.28
2024-03-11T06:15:59.316Z,13.28
2024-03-11T06:21:02.982Z,13.27
2024-03-11T06:26:07.062Z,13.28
2024-03-11T06:31:13.767Z,13.28
2024-03-11T06:36:18.417Z,13.27
2024-03-11T06:41:22.179Z,13.28
2024-03-11T06:46:27.600Z,13.28
2024-03-11T06:51:31.734Z,13.27
2024-03-11T06:56:35.417Z,13.26
2024-03-11T07:01:40.522Z,13.27
2024-03-11T07:06:46.050Z,13.25
2024-03-11T07:11:50.160Z,13.26
2024-03-11T07:16:57.242Z,13.26
2024-03-11T07:22:01.990Z,13.25
2024-03-11T07:27:05.860Z,13.23
2024-03-11T07:32:12.653Z,13.25
2024-03-11T07:37:17.591Z,13.24
2024-03-11T07:42:23.495Z,13.25
2024-03-11T07:47:29.816Z,13.26
2024-03-11T07:52:33.600Z,13.24
2024-03-11T07:57:38.203Z,13.26
2024-03-11T08:02:43.603Z,13.24
2024-03-11T08:07:48.534Z,13.25
2024-03-11T08:12:52.861Z,13.25
2024-03-11T08:17:58.225Z,13.26
2024-03-11T08:23:01.950Z,13.26
2024-03-11T08:28:06.133Z,13.26
2024-03-11T08:33:14.044Z,13.26
2024-03-11T08:38:18.376Z,13.25
2024-03-11T08:43:22.021Z,13.24
2024-03-11T08:48:28.124Z,13.24
2024-03-11T08:53:32.127Z,13.24
2024-03-11T08:58:36.185Z,13.24
2024-03-11T09:03:41.592Z,13.24
2024-03-11T09:08:46.174Z,13.25
2024-03-11T09:13:49.823Z,13.26
2024-03-11T09:18:55.072Z,13.27
2024-03-11T09:23:59.219Z,13.27
2024-03-11T09:29:02.870Z,13.28
2024-03-11T09:34:08.804Z,13.28
2024-03-11T09:39:13.697Z,13.29
2024-03-11T09:44:21.016Z,13.29
2024-03-11T09:49:26.497Z,13.30
2024-03-11T09:54:30.555Z,13.31
2024-03-11T09:59:35.048Z,13.32
2024-03-11T10:04:40.781Z,13.33
2024-03-11T10:09:46.917Z,13.31
2024-03-11T10:14:51.660Z,13.33
2024-03-11T10:20:00.378Z,13.33
2024-03-11T10:25:06.064Z,13.32
2024-03-11T10:30:23.809Z,13.33
2024-03-11T10:35:35.240Z,13.33
2024-03-11T10:40:39.575Z,13.32
2024-03-11T10:45:43.841Z,13.33
2024-03-11T10:50:49.161Z,13.32
2024-03-11T10:55:57.050Z,13.32
2024-03-11T11:01:02.483Z,13.31
2024-03-11T11:06:16.662Z,13.30
2024-03-11T11:11:21.656Z,13.31
2024-03-11T11:16:27.540Z,13.30
2024-03-11T11:21:33.484Z,13.30
2024-03-11T11:26:44.367Z,13.31
2024-03-11T11:32:02.884Z,13.31
2024-03-11T11:37:09.089Z,13.31
2024-03-11T11:42:37.444Z,13.32
2024-03-11T11:47:41.870Z,13.31
2024-03-11T11:53:03.277Z,13.33
2024-03-11T11:58:09.904Z,13.33
2024-03-11T12:03:28.926Z,13.34
2024-03-11T12:08:35.184Z,13.36
2024-03-11T12:13:39.879Z,13.37
2024-03-11T12:18:45.024Z,13.37
2024-03-11T12:23:51.755Z,13.37
2024-03-11T12:29:06.408Z,13.37
2024-03-11T12:34:12.331Z,13.39
2024-03-11T12:39:27.868Z,13.39
2024-03-11T12:44:33.466Z,13.38
2024-03-11T12:49:37.313Z,13.38
2024-03-11T12:54:43.292Z,13.38
2024-03-11T13:00:00.921Z,13.37
2024-03-11T13:05:18.251Z,13.36
2024-03-11T13:10:23.945Z,13.36
2024-03-11T13:15:31.734Z,13.36
2024-03-11T13:20:39.541Z,13.36
2024-03-11T13:25:45.001Z,13.36
2024-03-11T13:30:50.893Z,13.37
2024-03-11T13:35:58.622Z,13.36
2024-03-11T13:41:04.321Z,13.36
2024-03-11T13:46:08.151Z,13.37
2024-03-11T13:51:12.120Z,13.38
2024-03-11T13:56:17.218Z,13.38
2024-03-11T14:01:21.101Z,13.38
2024-03-11T14:06:26.553Z,13.39
2024-03-11T14:11:31.640Z,13.39
2024-03-11T14:16:36.355Z,13.39
2024-03-11T14:21:41.474Z,13.39
2024-03-11T14:26:46.589Z,13.39
2024-03-11T14:31:50.210Z,13.38
2024-03-11T14:36:54.520Z,13.39
2024-03-11T14:42:01.694Z,13.40
2024-03-11T14:47:07.920Z,13.38
2024-03-11T14:52:12.557Z,13.38
2024-03-11T14:57:18.048Z,13.39
2024-03-11T15:02:21.769Z,13.38
2024-03-11T15:07:27.948Z,13.39
2024-03-11T15:12:35.883Z,13.38
2024-03-11T15:17:41.049Z,13.38
2024-03-11T15:22:44.719Z,13.39
2024-03-11T15:27:49.886Z,13.39
2024-03-11T15:32:54.079Z,13.39
2024-03-11T15:37:57.782Z,13.39
2024-03-11T15:43:02.942Z,13.38
2024-03-11T15:48:08.015Z,13.39
2024-03-11T15:53:14.480Z,13.39
2024-03-11T15:58:19.854Z,13.38
2024-03-11T16:03:25.127Z,13.39
2024-03-11T16:08:30.544Z,13.39
2024-03-11T16:13:36.294Z,13.39
2024-03-11T16:18:41.459Z,13.39
2024-03-11T16:23:47.512Z,13.39
2024-03-11T16:28:52.647Z,13.39
2024-03-11T16:33:56.878Z,13.40
2024-03-11T16:39:02.505Z,13.39
2024-03-11T16:44:07.882Z,13.40
2024-03-11T16:49:11.960Z,13.40
2024-03-11T16:54:18.726Z,13.41
2024-03-11T16:59:25.488Z,13.41
2024-03-11T17:04:30.838Z,13.40
2024-03-11T17:09:35.005Z,13.41
2024-03-11T17:14:42.516Z,13.41
2024-03-11T17:19:46.589Z,13.41
2024-03-11T17:24:50.703Z,13.41
2024-03-11T17:29:56.212Z,13.41
2024-03-11T17:35:02.431Z,13.41
2024-03-11T17:40:08.029Z,13.42
2024-03-11T17:45:15.918Z,13.42
2024-03-11T17:50:24.968Z,13.41
2024-03-11T17:55:29.217Z,13.42
2024-03-11T18:00:36.684Z,13.41
2024-03-11T18:05:42.112Z,13.43
2024-03-11T18:10:47.906Z,13.41
2024-03-11T18:15:53.158Z,13.42
2024-03-11T18:20:56.826Z,13.42
2024-03-11T18:26:01.310Z,13.41
2024-03-11T18:31:11.643Z,13.41
2024-03-11T18:36:16.562Z,13.41
2024-03-11T18:41:20.494Z,13.41
2024-03-11T18:46:25.639Z,13.41
2024-03-11T18:51:29.343Z,13.42
2024-03-11T18:56:33.005Z,13.40
2024-03-11T19:01:38.954Z,13.42
2024-03-11T19:06:42.808Z,13.41
2024-03-11T19:11:47.687Z,13.41
2024-03-11T19:16:53.204Z,13.42
2024-03-11T19:21:57.530Z,13.40
2024-03-11T19:27:03.949Z,13.42
2024-03-11T19:32:09.970Z,13.41
2024-03-11T19:37:44.260Z,13.42
2024-03-11T19:43:00.066Z,13.42
2024-03-11T19:48:56.005Z,13.42
2024-03-11T19:54:48.424Z,13.43
2024-03-11T20:00:35.745Z,13.43
2024-03-11T20:06:19.436Z,13.43
2024-03-11T20:12:12.944Z,13.43
2024-03-11T20:17:34.095Z,13.43
2024-03-11T20:22:58.150Z,13.43
2024-03-11T20:28:05.677Z,13.43
2024-03-11T20:33:10.962Z,13.44
2024-03-11T20:38:15.077Z,13.43
2024-03-11T20:43:19.915Z,13.43
2024-03-11T20:48:25.088Z,13.42
2024-03-11T20:53:29.291Z,13.43
2024-03-11T20:58:32.925Z,13.42
2024-03-11T21:03:38.466Z,13.42
2024-03-11T21:08:44.375Z,13.42
2024-03-11T21:13:48.019Z,13.41
2024-03-11T21:19:09.517Z,13.43
2024-03-11T21:24:30.106Z,13.44
2024-03-11T21:29:35.965Z,13.43
2024-03-11T21:34:44.287Z,13.43
2024-03-11T21:39:49.821Z,13.42
2024-03-11T21:44:53.959Z,13.42
2024-03-11T21:49:59.099Z,13.43
2024-03-11T21:55:02.970Z,13.44
2024-03-11T22:00:08.722Z,13.44
2024-03-11T22:05:14.086Z,13.43
2024-03-11T22:10:19.991Z,13.43
2024-03-11T22:15:24.357Z,13.42
2024-03-11T22:20:30.278Z,13.42
2024-03-11T22:25:34.372Z,13.42
2024-03-11T22:30:38.266Z,13.42
2024-03-11T22:35:45.498Z,13.42
2024-03-11T22:40:49.331Z,13.42
2024-03-11T22:45:53.311Z,13.43
2024-03-11T22:50:58.859Z,13.42
2024-03-11T22:56:02.483Z,13.41
2024-03-11T23:01:08.468Z,13.42
2024-03-11T23:06:20.827Z,13.42
2024-03-11T23:11:25.815Z,13.42
2024-03-11T23:16:29.588Z,13.41
2024-03-11T23:21:34.702Z,13.41
2024-03-11T23:26:38.433Z,13.40
2024-03-11T23:31:45.322Z,13.41
2024-03-11T23:36:51.100Z,13.41
2024-03-11T23:41:56.084Z,13.41
2024-03-11T23:46:59.869Z,13.39
2024-03-11T23:52:06.975Z,13.40
2024-03-11T23:57:13.960Z,13.39
